sensor_id;sensor_type;location;lat;lon;timestamp;temperature;humidity
7684;DHT22;3884;48.616;12.872;2022-07-09T00:00:34;10.80;99.90
7684;DHT22;3884;48.616;12.872;2022-07-09T00:03:00;10.80;99.90
7684;DHT22;3884;48.616;12.872;2022-07-09T00:05:27;10.80;99.90
7684;DHT22;3884;48.616;12.872;2022-07-09T00:07:54;11.00;99.90
7684;DHT22;3884;48.616;12.872;2022-07-09T00:10:21;11.30;1.00
7684;DHT22;3884;48.616;12.872;2022-07-09T00:12:48;11.40;1.00
7684;DHT22;3884;48.616;12.872;2022-07-09T00:15:16;11.50;1.00
7684;DHT22;3884;48.616;12.872;2022-07-09T00:17:43;11.60;99.90
7684;DHT22;3884;48.616;12.872;2022-07-09T00:20:11;11.70;99.90
7684;DHT22;3884;48.616;12.872;2022-07-09T00:22:37;11.80;1.00
7684;DHT22;3884;48.616;12.872;2022-07-09T00:25:05;11.80;99.90
7684;DHT22;3884;48.616;12.872;2022-07-09T00:27:32;11.70;1.00
7684;DHT22;3884;48.616;12.872;2022-07-09T00:29:59;11.70;1.00
7684;DHT22;3884;48.616;12.872;2022-07-09T00:32:27;11.70;1.00
7684;DHT22;3884;48.616;12.872;2022-07-09T00:34:54;11.60;1.00
7684;DHT22;3884;48.616;12.872;2022-07-09T00:37:21;11.40;99.90
7684;DHT22;3884;48.616;12.872;2022-07-09T00:39:48;11.40;1.00
7684;DHT22;3884;48.616;12.872;2022-07-09T00:42:14;11.40;1.00
7684;DHT22;3884;48.616;12.872;2022-07-09T00:44:41;11.40;1.00
7684;DHT22;3884;48.616;12.872;2022-07-09T00:47:08;11.40;1.00
7684;DHT22;3884;48.616;12.872;2022-07-09T00:49:38;11.50;1.00
7684;DHT22;3884;48.616;12.872;2022-07-09T00:52:07;11.40;1.00
7684;DHT22;3884;48.616;12.872;2022-07-09T00:54:36;11.30;1.00
7684;DHT22;3884;48.616;12.872;2022-07-09T00:57:04;11.40;99.00
7684;DHT22;3884;48.616;12.872;2022-07-09T00:59:33;11.40;31.90
7684;DHT22;3884;48.616;12.872;2022-07-09T01:02:01;11.30;52.50
7684;DHT22;3884;48.616;12.872;2022-07-09T01:04:28;11.30;94.80
7684;DHT22;3884;48.616;12.872;2022-07-09T01:06:56;11.50;1.00
7684;DHT22;3884;48.616;12.872;2022-07-09T01:09:24;11.60;1.00
7684;DHT22;3884;48.616;12.872;2022-07-09T01:11:51;11.60;1.00
7684;DHT22;3884;48.616;12.872;2022-07-09T01:14:19;11.50;1.00
7684;DHT22;3884;48.616;12.872;2022-07-09T01:16:46;11.60;1.00
7684;DHT22;3884;48.616;12.872;2022-07-09T01:19:12;11.50;1.00
7684;DHT22;3884;48.616;12.872;2022-07-09T01:21:41;11.50;1.00
7684;DHT22;3884;48.616;12.872;2022-07-09T01:24:08;11.40;99.90
7684;DHT22;3884;48.616;12.872;2022-07-09T01:26:34;11.20;99.90
7684;DHT22;3884;48.616;12.872;2022-07-09T01:29:02;11.30;1.00
7684;DHT22;3884;48.616;12.872;2022-07-09T01:31:29;11.50;99.90
7684;DHT22;3884;48.616;12.872;2022-07-09T01:33:56;11.40;99.90
7684;DHT22;3884;48.616;12.872;2022-07-09T01:36:23;11.30;1.00
7684;DHT22;3884;48.616;12.872;2022-07-09T01:38:51;11.10;1.00
7684;DHT22;3884;48.616;12.872;2022-07-09T01:41:18;11.10;1.00
7684;DHT22;3884;48.616;12.872;2022-07-09T01:43:45;11.20;1.00
7684;DHT22;3884;48.616;12.872;2022-07-09T01:46:12;11.30;99.90
7684;DHT22;3884;48.616;12.872;2022-07-09T01:48:39;11.10;99.90
7684;DHT22;3884;48.616;12.872;2022-07-09T01:51:08;11.00;1.00
7684;DHT22;3884;48.616;12.872;2022-07-09T01:53:35;11.10;1.00
7684;DHT22;3884;48.616;12.872;2022-07-09T01:56:06;11.10;1.00
7684;DHT22;3884;48.616;12.872;2022-07-09T01:58:33;11.20;99.90
7684;DHT22;3884;48.616;12.872;2022-07-09T02:01:01;11.30;1.00
7684;DHT22;3884;48.616;12.872;2022-07-09T02:03:28;11.30;1.00
7684;DHT22;3884;48.616;12.872;2022-07-09T02:05:55;11.20;1.00
7684;DHT22;3884;48.616;12.872;2022-07-09T02:08:22;11.10;1.00
7684;DHT22;3884;48.616;12.872;2022-07-09T02:10:49;11.00;1.00
7684;DHT22;3884;48.616;12.872;2022-07-09T02:13:18;10.80;7.50
7684;DHT22;3884;48.616;12.872;2022-07-09T02:15:45;10.90;1.00
7684;DHT22;3884;48.616;12.872;2022-07-09T02:18:12;10.70;99.90
7684;DHT22;3884;48.616;12.872;2022-07-09T02:20:39;10.60;1.00
7684;DHT22;3884;48.616;12.872;2022-07-09T02:23:06;10.70;99.90
7684;DHT22;3884;48.616;12.872;2022-07-09T02:25:33;10.70;99.90
7684;DHT22;3884;48.616;12.872;2022-07-09T02:28:01;10.60;1.00
7684;DHT22;3884;48.616;12.872;2022-07-09T02:30:30;10.60;1.00
7684;DHT22;3884;48.616;12.872;2022-07-09T02:32:57;10.60;1.00
7684;DHT22;3884;48.616;12.872;2022-07-09T02:35:24;10.30;1.00
7684;DHT22;3884;48.616;12.872;2022-07-09T02:37:51;10.40;1.00
7684;DHT22;3884;48.616;12.872;2022-07-09T02:40:17;10.40;1.00
7684;DHT22;3884;48.616;12.872;2022-07-09T02:42:44;10.30;1.00
7684;DHT22;3884;48.616;12.872;2022-07-09T02:45:11;10.30;1.00
7684;DHT22;3884;48.616;12.872;2022-07-09T02:47:39;10.20;1.00
7684;DHT22;3884;48.616;12.872;2022-07-09T02:50:07;10.20;1.00
7684;DHT22;3884;48.616;12.872;2022-07-09T02:52:34;10.20;1.00
7684;DHT22;3884;48.616;12.872;2022-07-09T02:55:01;10.10;1.00
7684;DHT22;3884;48.616;12.872;2022-07-09T02:57:28;10.20;1.00
7684;DHT22;3884;48.616;12.872;2022-07-09T02:59:54;10.20;64.70
7684;DHT22;3884;48.616;12.872;2022-07-09T03:02:21;10.20;97.40
7684;DHT22;3884;48.616;12.872;2022-07-09T03:04:49;10.20;26.50
7684;DHT22;3884;48.616;12.872;2022-07-09T03:07:16;10.20;1.00
7684;DHT22;3884;48.616;12.872;2022-07-09T03:09:43;10.10;1.00
7684;DHT22;3884;48.616;12.872;2022-07-09T03:12:10;10.10;1.00
7684;DHT22;3884;48.616;12.872;2022-07-09T03:14:37;10.10;1.00
7684;DHT22;3884;48.616;12.872;2022-07-09T03:17:04;10.00;1.00
7684;DHT22;3884;48.616;12.872;2022-07-09T03:19:31;10.10;10.10
7684;DHT22;3884;48.616;12.872;2022-07-09T03:21:59;10.10;38.90
7684;DHT22;3884;48.616;12.872;2022-07-09T03:24:26;10.20;49.50
7684;DHT22;3884;48.616;12.872;2022-07-09T03:26:53;10.30;80.20
7684;DHT22;3884;48.616;12.872;2022-07-09T03:29:20;10.40;62.00
7684;DHT22;3884;48.616;12.872;2022-07-09T03:31:47;10.40;99.90
7684;DHT22;3884;48.616;12.872;2022-07-09T03:34:14;10.40;99.90
7684;DHT22;3884;48.616;12.872;2022-07-09T03:36:41;10.50;99.90
7684;DHT22;3884;48.616;12.872;2022-07-09T03:39:09;10.60;99.90
7684;DHT22;3884;48.616;12.872;2022-07-09T03:41:36;10.70;99.90
7684;DHT22;3884;48.616;12.872;2022-07-09T03:44:03;10.80;99.90
7684;DHT22;3884;48.616;12.872;2022-07-09T03:46:30;10.90;99.90
7684;DHT22;3884;48.616;12.872;2022-07-09T03:48:57;11.00;99.90
7684;DHT22;3884;48.616;12.872;2022-07-09T03:51:24;10.90;99.90
7684;DHT22;3884;48.616;12.872;2022-07-09T03:53:50;11.00;99.90
7684;DHT22;3884;48.616;12.872;2022-07-09T03:56:19;11.10;99.90
7684;DHT22;3884;48.616;12.872;2022-07-09T03:58:46;11.20;99.90
7684;DHT22;3884;48.616;12.872;2022-07-09T04:01:13;11.40;76.90
7684;DHT22;3884;48.616;12.872;2022-07-09T04:03:41;11.50;1.00
7684;DHT22;3884;48.616;12.872;2022-07-09T04:06:07;11.60;1.00
7684;DHT22;3884;48.616;12.872;2022-07-09T04:08:34;11.60;1.00
7684;DHT22;3884;48.616;12.872;2022-07-09T04:11:01;11.70;1.00
7684;DHT22;3884;48.616;12.872;2022-07-09T04:13:29;11.70;34.50
7684;DHT22;3884;48.616;12.872;2022-07-09T04:15:56;11.80;1.00
7684;DHT22;3884;48.616;12.872;2022-07-09T04:18:23;11.90;1.00
7684;DHT22;3884;48.616;12.872;2022-07-09T04:20:50;11.90;1.00
7684;DHT22;3884;48.616;12.872;2022-07-09T04:23:18;12.00;1.00
7684;DHT22;3884;48.616;12.872;2022-07-09T04:25:44;12.10;1.00
7684;DHT22;3884;48.616;12.872;2022-07-09T04:28:13;12.10;8.30
7684;DHT22;3884;48.616;12.872;2022-07-09T04:30:41;12.20;98.70
7684;DHT22;3884;48.616;12.872;2022-07-09T04:33:09;12.30;99.90
7684;DHT22;3884;48.616;12.872;2022-07-09T04:35:35;12.40;93.30
7684;DHT22;3884;48.616;12.872;2022-07-09T04:38:04;12.50;1.00
7684;DHT22;3884;48.616;12.872;2022-07-09T04:40:31;12.40;1.00
7684;DHT22;3884;48.616;12.872;2022-07-09T04:42:58;12.40;1.00
7684;DHT22;3884;48.616;12.872;2022-07-09T04:45:24;12.60;99.90
7684;DHT22;3884;48.616;12.872;2022-07-09T04:47:53;12.70;1.00
7684;DHT22;3884;48.616;12.872;2022-07-09T04:50:19;12.60;99.90
7684;DHT22;3884;48.616;12.872;2022-07-09T04:52:46;12.70;99.90
7684;DHT22;3884;48.616;12.872;2022-07-09T04:55:13;12.80;1.00
7684;DHT22;3884;48.616;12.872;2022-07-09T04:57:41;12.90;1.00
7684;DHT22;3884;48.616;12.872;2022-07-09T05:00:09;13.00;99.90
7684;DHT22;3884;48.616;12.872;2022-07-09T05:02:36;13.10;1.00
7684;DHT22;3884;48.616;12.872;2022-07-09T05:05:05;13.20;1.00
7684;DHT22;3884;48.616;12.872;2022-07-09T05:07:33;13.20;99.90
7684;DHT22;3884;48.616;12.872;2022-07-09T05:10:00;13.30;37.80
7684;DHT22;3884;48.616;12.872;2022-07-09T05:12:27;13.40;25.70
7684;DHT22;3884;48.616;12.872;2022-07-09T05:14:54;13.60;60.90
7684;DHT22;3884;48.616;12.872;2022-07-09T05:17:21;13.60;99.90
7684;DHT22;3884;48.616;12.872;2022-07-09T05:19:49;13.70;99.90
7684;DHT22;3884;48.616;12.872;2022-07-09T05:22:17;13.70;99.90
7684;DHT22;3884;48.616;12.872;2022-07-09T05:24:44;13.80;11.20
7684;DHT22;3884;48.616;12.872;2022-07-09T05:27:11;13.80;99.90
7684;DHT22;3884;48.616;12.872;2022-07-09T05:29:38;13.90;53.80
7684;DHT22;3884;48.616;12.872;2022-07-09T05:32:06;14.00;99.90
7684;DHT22;3884;48.616;12.872;2022-07-09T05:34:33;14.00;1.00
7684;DHT22;3884;48.616;12.872;2022-07-09T05:36:59;14.10;1.00
7684;DHT22;3884;48.616;12.872;2022-07-09T05:39:28;14.20;1.00
7684;DHT22;3884;48.616;12.872;2022-07-09T05:41:54;14.30;99.90
7684;DHT22;3884;48.616;12.872;2022-07-09T05:44:22;14.30;1.00
7684;DHT22;3884;48.616;12.872;2022-07-09T05:46:49;14.40;99.90
7684;DHT22;3884;48.616;12.872;2022-07-09T05:49:16;14.50;99.90
7684;DHT22;3884;48.616;12.872;2022-07-09T05:51:43;14.60;99.90
7684;DHT22;3884;48.616;12.872;2022-07-09T05:54:10;14.50;99.90
7684;DHT22;3884;48.616;12.872;2022-07-09T05:56:38;14.50;61.10
7684;DHT22;3884;48.616;12.872;2022-07-09T05:59:06;14.60;1.00
7684;DHT22;3884;48.616;12.872;2022-07-09T06:01:33;14.60;1.00
7684;DHT22;3884;48.616;12.872;2022-07-09T06:04:04;14.60;1.00
7684;DHT22;3884;48.616;12.872;2022-07-09T06:06:31;14.70;99.90
7684;DHT22;3884;48.616;12.872;2022-07-09T06:08:58;14.90;1.00
7684;DHT22;3884;48.616;12.872;2022-07-09T06:11:25;14.90;2.30
7684;DHT22;3884;48.616;12.872;2022-07-09T06:13:53;14.80;67.80
7684;DHT22;3884;48.616;12.872;2022-07-09T06:16:20;14.90;1.00
7684;DHT22;3884;48.616;12.872;2022-07-09T06:18:47;14.90;1.00
7684;DHT22;3884;48.616;12.872;2022-07-09T06:21:14;15.00;1.00
7684;DHT22;3884;48.616;12.872;2022-07-09T06:23:41;15.00;1.00
7684;DHT22;3884;48.616;12.872;2022-07-09T06:26:08;15.10;99.90
7684;DHT22;3884;48.616;12.872;2022-07-09T06:28:36;15.20;99.90
7684;DHT22;3884;48.616;12.872;2022-07-09T06:31:04;15.30;99.90
7684;DHT22;3884;48.616;12.872;2022-07-09T06:33:31;15.20;99.90
7684;DHT22;3884;48.616;12.872;2022-07-09T06:35:59;15.20;99.90
7684;DHT22;3884;48.616;12.872;2022-07-09T06:38:27;15.40;99.90
7684;DHT22;3884;48.616;12.872;2022-07-09T06:40:54;15.40;99.90
7684;DHT22;3884;48.616;12.872;2022-07-09T06:43:22;15.60;99.90
7684;DHT22;3884;48.616;12.872;2022-07-09T06:45:52;15.70;99.90
7684;DHT22;3884;48.616;12.872;2022-07-09T06:48:21;15.70;99.90
7684;DHT22;3884;48.616;12.872;2022-07-09T06:50:48;15.80;99.90
7684;DHT22;3884;48.616;12.872;2022-07-09T06:53:14;15.80;99.90
7684;DHT22;3884;48.616;12.872;2022-07-09T06:55:41;15.90;99.90
7684;DHT22;3884;48.616;12.872;2022-07-09T06:58:09;15.90;99.90
7684;DHT22;3884;48.616;12.872;2022-07-09T07:00:35;15.90;99.90
7684;DHT22;3884;48.616;12.872;2022-07-09T07:03:02;16.00;99.90
7684;DHT22;3884;48.616;12.872;2022-07-09T07:05:31;16.00;99.90
7684;DHT22;3884;48.616;12.872;2022-07-09T07:07:57;16.10;99.90
7684;DHT22;3884;48.616;12.872;2022-07-09T07:10:24;16.30;99.90
7684;DHT22;3884;48.616;12.872;2022-07-09T07:12:51;16.40;99.90
7684;DHT22;3884;48.616;12.872;2022-07-09T07:15:18;16.40;83.20
7684;DHT22;3884;48.616;12.872;2022-07-09T07:17:45;16.40;99.90
7684;DHT22;3884;48.616;12.872;2022-07-09T07:20:12;16.40;99.90
7684;DHT22;3884;48.616;12.872;2022-07-09T07:22:41;16.40;67.70
7684;DHT22;3884;48.616;12.872;2022-07-09T07:25:08;16.40;99.90
7684;DHT22;3884;48.616;12.872;2022-07-09T07:27:35;16.40;99.90
7684;DHT22;3884;48.616;12.872;2022-07-09T07:30:03;16.40;99.90
7684;DHT22;3884;48.616;12.872;2022-07-09T07:32:30;16.40;99.90
7684;DHT22;3884;48.616;12.872;2022-07-09T07:34:56;16.40;99.90
7684;DHT22;3884;48.616;12.872;2022-07-09T07:37:23;16.50;99.90
7684;DHT22;3884;48.616;12.872;2022-07-09T07:39:51;16.70;99.90
7684;DHT22;3884;48.616;12.872;2022-07-09T07:42:18;16.70;99.90
7684;DHT22;3884;48.616;12.872;2022-07-09T07:44:45;16.70;99.90
7684;DHT22;3884;48.616;12.872;2022-07-09T07:47:12;16.80;99.90
7684;DHT22;3884;48.616;12.872;2022-07-09T07:49:39;16.80;99.90
7684;DHT22;3884;48.616;12.872;2022-07-09T07:52:06;16.90;99.90
7684;DHT22;3884;48.616;12.872;2022-07-09T07:54:33;16.90;99.90
7684;DHT22;3884;48.616;12.872;2022-07-09T07:57:03;17.00;99.90
7684;DHT22;3884;48.616;12.872;2022-07-09T07:59:30;17.10;77.30
7684;DHT22;3884;48.616;12.872;2022-07-09T08:01:56;17.30;1.00
7684;DHT22;3884;48.616;12.872;2022-07-09T08:04:23;17.30;38.10
7684;DHT22;3884;48.616;12.872;2022-07-09T08:06:50;17.30;4.50
7684;DHT22;3884;48.616;12.872;2022-07-09T08:09:17;17.50;20.50
7684;DHT22;3884;48.616;12.872;2022-07-09T08:11:44;17.80;9.60
7684;DHT22;3884;48.616;12.872;2022-07-09T08:14:12;18.10;1.00
7684;DHT22;3884;48.616;12.872;2022-07-09T08:16:39;18.30;1.00
7684;DHT22;3884;48.616;12.872;2022-07-09T08:19:06;18.60;1.00
7684;DHT22;3884;48.616;12.872;2022-07-09T08:21:33;18.80;1.00
7684;DHT22;3884;48.616;12.872;2022-07-09T08:23:59;18.90;1.00
7684;DHT22;3884;48.616;12.872;2022-07-09T08:26:29;19.10;1.00
7684;DHT22;3884;48.616;12.872;2022-07-09T08:28:56;19.40;1.00
7684;DHT22;3884;48.616;12.872;2022-07-09T08:31:24;19.50;1.00
7684;DHT22;3884;48.616;12.872;2022-07-09T08:33:51;19.70;1.00
7684;DHT22;3884;48.616;12.872;2022-07-09T08:36:18;19.80;1.00
7684;DHT22;3884;48.616;12.872;2022-07-09T08:38:45;19.90;1.00
7684;DHT22;3884;48.616;12.872;2022-07-09T08:41:15;20.20;1.00
7684;DHT22;3884;48.616;12.872;2022-07-09T08:43:48;20.30;1.00
7684;DHT22;3884;48.616;12.872;2022-07-09T08:46:16;20.10;1.00
7684;DHT22;3884;48.616;12.872;2022-07-09T08:48:44;20.00;1.00
7684;DHT22;3884;48.616;12.872;2022-07-09T08:51:13;20.10;1.00
7684;DHT22;3884;48.616;12.872;2022-07-09T08:53:41;20.20;1.00
7684;DHT22;3884;48.616;12.872;2022-07-09T08:56:09;20.00;99.90
7684;DHT22;3884;48.616;12.872;2022-07-09T08:58:37;20.10;1.00
7684;DHT22;3884;48.616;12.872;2022-07-09T09:01:04;20.10;1.00
7684;DHT22;3884;48.616;12.872;2022-07-09T09:03:32;20.30;1.00
7684;DHT22;3884;48.616;12.872;2022-07-09T09:06:04;20.60;99.90
7684;DHT22;3884;48.616;12.872;2022-07-09T09:08:35;20.70;99.90
7684;DHT22;3884;48.616;12.872;2022-07-09T09:11:03;20.80;99.90
7684;DHT22;3884;48.616;12.872;2022-07-09T09:13:30;20.70;99.90
7684;DHT22;3884;48.616;12.872;2022-07-09T09:16:04;20.60;99.90
7684;DHT22;3884;48.616;12.872;2022-07-09T09:18:33;20.50;99.90
7684;DHT22;3884;48.616;12.872;2022-07-09T09:21:06;20.50;99.90
7684;DHT22;3884;48.616;12.872;2022-07-09T09:23:40;20.50;99.90
7684;DHT22;3884;48.616;12.872;2022-07-09T09:26:11;20.50;99.90
7684;DHT22;3884;48.616;12.872;2022-07-09T09:28:46;20.70;99.90
7684;DHT22;3884;48.616;12.872;2022-07-09T09:31:24;20.80;99.90
7684;DHT22;3884;48.616;12.872;2022-07-09T09:33:54;20.90;99.90
7684;DHT22;3884;48.616;12.872;2022-07-09T09:36:32;20.90;99.90
7684;DHT22;3884;48.616;12.872;2022-07-09T09:39:16;21.10;99.90
7684;DHT22;3884;48.616;12.872;2022-07-09T09:41:45;21.00;99.90
7684;DHT22;3884;48.616;12.872;2022-07-09T09:44:13;21.10;99.90
7684;DHT22;3884;48.616;12.872;2022-07-09T09:46:41;21.00;99.90
7684;DHT22;3884;48.616;12.872;2022-07-09T09:49:10;20.90;99.90
7684;DHT22;3884;48.616;12.872;2022-07-09T09:51:46;20.80;99.90
7684;DHT22;3884;48.616;12.872;2022-07-09T09:54:15;20.80;99.90
7684;DHT22;3884;48.616;12.872;2022-07-09T09:56:42;20.80;99.90
7684;DHT22;3884;48.616;12.872;2022-07-09T09:59:10;20.70;99.90
7684;DHT22;3884;48.616;12.872;2022-07-09T10:01:37;20.90;99.90
7684;DHT22;3884;48.616;12.872;2022-07-09T10:04:05;20.80;99.90
7684;DHT22;3884;48.616;12.872;2022-07-09T10:06:32;20.70;99.90
7684;DHT22;3884;48.616;12.872;2022-07-09T10:09:03;20.90;99.90
7684;DHT22;3884;48.616;12.872;2022-07-09T10:11:44;21.10;99.90
7684;DHT22;3884;48.616;12.872;2022-07-09T10:14:16;21.20;99.90
7684;DHT22;3884;48.616;12.872;2022-07-09T10:16:43;21.40;99.90
7684;DHT22;3884;48.616;12.872;2022-07-09T10:19:10;21.40;99.90
7684;DHT22;3884;48.616;12.872;2022-07-09T10:21:38;21.50;99.90
7684;DHT22;3884;48.616;12.872;2022-07-09T10:24:08;21.40;99.90
7684;DHT22;3884;48.616;12.872;2022-07-09T10:26:44;21.40;99.90
7684;DHT22;3884;48.616;12.872;2022-07-09T10:29:23;21.50;99.90
7684;DHT22;3884;48.616;12.872;2022-07-09T10:31:50;21.60;99.90
7684;DHT22;3884;48.616;12.872;2022-07-09T10:34:36;22.00;99.90
7684;DHT22;3884;48.616;12.872;2022-07-09T10:37:07;22.10;99.90
7684;DHT22;3884;48.616;12.872;2022-07-09T10:39:35;22.20;99.90
7684;DHT22;3884;48.616;12.872;2022-07-09T10:42:04;22.10;99.90
7684;DHT22;3884;48.616;12.872;2022-07-09T10:44:36;22.00;99.90
7684;DHT22;3884;48.616;12.872;2022-07-09T10:47:04;22.00;99.90
7684;DHT22;3884;48.616;12.872;2022-07-09T10:49:33;21.70;99.90
7684;DHT22;3884;48.616;12.872;2022-07-09T10:52:01;21.60;99.90
7684;DHT22;3884;48.616;12.872;2022-07-09T10:54:28;21.40;99.90
7684;DHT22;3884;48.616;12.872;2022-07-09T10:56:56;21.40;99.90
7684;DHT22;3884;48.616;12.872;2022-07-09T10:59:24;21.30;99.90
7684;DHT22;3884;48.616;12.872;2022-07-09T11:01:52;21.40;99.90
7684;DHT22;3884;48.616;12.872;2022-07-09T11:04:27;21.40;99.90
7684;DHT22;3884;48.616;12.872;2022-07-09T11:06:55;21.60;99.90
7684;DHT22;3884;48.616;12.872;2022-07-09T11:09:22;21.70;99.90
7684;DHT22;3884;48.616;12.872;2022-07-09T11:11:51;21.80;99.90
7684;DHT22;3884;48.616;12.872;2022-07-09T11:14:19;21.80;99.90
7684;DHT22;3884;48.616;12.872;2022-07-09T11:16:55;21.80;99.90
7684;DHT22;3884;48.616;12.872;2022-07-09T11:19:24;21.70;99.90
7684;DHT22;3884;48.616;12.872;2022-07-09T11:22:00;21.70;99.90
7684;DHT22;3884;48.616;12.872;2022-07-09T11:24:28;21.90;99.90
7684;DHT22;3884;48.616;12.872;2022-07-09T11:26:55;21.90;99.90
7684;DHT22;3884;48.616;12.872;2022-07-09T11:29:23;22.00;99.90
7684;DHT22;3884;48.616;12.872;2022-07-09T11:31:51;22.10;99.90
7684;DHT22;3884;48.616;12.872;2022-07-09T11:34:19;22.20;99.90
7684;DHT22;3884;48.616;12.872;2022-07-09T11:36:47;22.40;99.90
7684;DHT22;3884;48.616;12.872;2022-07-09T11:39:24;22.30;99.90
7684;DHT22;3884;48.616;12.872;2022-07-09T11:41:51;22.50;99.90
7684;DHT22;3884;48.616;12.872;2022-07-09T11:44:24;22.50;99.90
7684;DHT22;3884;48.616;12.872;2022-07-09T11:47:06;22.40;99.90
7684;DHT22;3884;48.616;12.872;2022-07-09T11:49:35;22.40;99.90
7684;DHT22;3884;48.616;12.872;2022-07-09T11:52:03;22.80;99.90
7684;DHT22;3884;48.616;12.872;2022-07-09T11:54:31;22.90;99.90
7684;DHT22;3884;48.616;12.872;2022-07-09T11:56:58;23.00;99.90
7684;DHT22;3884;48.616;12.872;2022-07-09T11:59:30;23.10;99.90
7684;DHT22;3884;48.616;12.872;2022-07-09T12:01:59;23.40;99.90
7684;DHT22;3884;48.616;12.872;2022-07-09T12:04:29;23.30;89.50
7684;DHT22;3884;48.616;12.872;2022-07-09T12:06:56;22.90;85.60
7684;DHT22;3884;48.616;12.872;2022-07-09T12:09:28;22.80;86.40
7684;DHT22;3884;48.616;12.872;2022-07-09T12:11:56;22.80;84.60
7684;DHT22;3884;48.616;12.872;2022-07-09T12:14:23;22.90;88.90
7684;DHT22;3884;48.616;12.872;2022-07-09T12:16:51;23.10;72.60
7684;DHT22;3884;48.616;12.872;2022-07-09T12:19:18;22.90;81.90
7684;DHT22;3884;48.616;12.872;2022-07-09T12:21:45;22.70;85.80
7684;DHT22;3884;48.616;12.872;2022-07-09T12:24:12;22.60;85.60
7684;DHT22;3884;48.616;12.872;2022-07-09T12:26:38;22.60;94.00
7684;DHT22;3884;48.616;12.872;2022-07-09T12:29:05;22.70;99.90
7684;DHT22;3884;48.616;12.872;2022-07-09T12:31:32;22.70;91.00
7684;DHT22;3884;48.616;12.872;2022-07-09T12:34:04;22.60;87.80
7684;DHT22;3884;48.616;12.872;2022-07-09T12:36:31;22.30;88.30
7684;DHT22;3884;48.616;12.872;2022-07-09T12:38:58;22.20;86.20
7684;DHT22;3884;48.616;12.872;2022-07-09T12:41:24;22.10;83.50
7684;DHT22;3884;48.616;12.872;2022-07-09T12:43:51;22.10;82.20
7684;DHT22;3884;48.616;12.872;2022-07-09T12:46:18;22.00;90.90
7684;DHT22;3884;48.616;12.872;2022-07-09T12:48:45;22.10;78.00
7684;DHT22;3884;48.616;12.872;2022-07-09T12:51:13;22.00;85.60
7684;DHT22;3884;48.616;12.872;2022-07-09T12:53:40;22.10;91.70
7684;DHT22;3884;48.616;12.872;2022-07-09T12:56:07;22.10;91.90
7684;DHT22;3884;48.616;12.872;2022-07-09T12:58:34;22.00;91.50
7684;DHT22;3884;48.616;12.872;2022-07-09T13:01:01;22.10;95.50
7684;DHT22;3884;48.616;12.872;2022-07-09T13:03:28;21.90;91.50
7684;DHT22;3884;48.616;12.872;2022-07-09T13:05:55;21.80;89.80
7684;DHT22;3884;48.616;12.872;2022-07-09T13:08:23;21.80;96.80
7684;DHT22;3884;48.616;12.872;2022-07-09T13:10:50;21.60;96.90
7684;DHT22;3884;48.616;12.872;2022-07-09T13:13:17;21.60;99.90
7684;DHT22;3884;48.616;12.872;2022-07-09T13:15:44;21.70;99.90
7684;DHT22;3884;48.616;12.872;2022-07-09T13:18:11;21.70;99.90
7684;DHT22;3884;48.616;12.872;2022-07-09T13:20:38;21.60;99.90
7684;DHT22;3884;48.616;12.872;2022-07-09T13:23:05;21.60;99.90
7684;DHT22;3884;48.616;12.872;2022-07-09T13:25:33;21.60;99.90
7684;DHT22;3884;48.616;12.872;2022-07-09T13:28:00;21.60;99.90
7684;DHT22;3884;48.616;12.872;2022-07-09T13:30:27;21.70;99.90
7684;DHT22;3884;48.616;12.872;2022-07-09T13:32:54;21.60;99.90
7684;DHT22;3884;48.616;12.872;2022-07-09T13:35:21;21.70;99.90
7684;DHT22;3884;48.616;12.872;2022-07-09T13:37:50;21.60;99.90
7684;DHT22;3884;48.616;12.872;2022-07-09T13:40:16;21.70;99.90
7684;DHT22;3884;48.616;12.872;2022-07-09T13:42:45;21.70;99.90
7684;DHT22;3884;48.616;12.872;2022-07-09T13:45:11;21.70;99.90
7684;DHT22;3884;48.616;12.872;2022-07-09T13:47:38;21.70;99.90
7684;DHT22;3884;48.616;12.872;2022-07-09T13:50:06;21.70;99.90
7684;DHT22;3884;48.616;12.872;2022-07-09T13:52:33;21.70;99.90
7684;DHT22;3884;48.616;12.872;2022-07-09T13:55:00;21.70;99.90
7684;DHT22;3884;48.616;12.872;2022-07-09T13:57:27;21.60;99.90
7684;DHT22;3884;48.616;12.872;2022-07-09T13:59:55;21.60;99.90
7684;DHT22;3884;48.616;12.872;2022-07-09T14:02:22;21.60;99.90
7684;DHT22;3884;48.616;12.872;2022-07-09T14:04:49;21.50;99.90
7684;DHT22;3884;48.616;12.872;2022-07-09T14:07:16;21.60;99.90
7684;DHT22;3884;48.616;12.872;2022-07-09T14:09:43;21.70;99.90
7684;DHT22;3884;48.616;12.872;2022-07-09T14:12:10;21.70;99.90
7684;DHT22;3884;48.616;12.872;2022-07-09T14:14:36;21.70;99.90
7684;DHT22;3884;48.616;12.872;2022-07-09T14:17:05;21.60;99.90
7684;DHT22;3884;48.616;12.872;2022-07-09T14:19:31;21.60;99.90
7684;DHT22;3884;48.616;12.872;2022-07-09T14:21:58;21.50;99.90
7684;DHT22;3884;48.616;12.872;2022-07-09T14:24:25;21.40;99.90
7684;DHT22;3884;48.616;12.872;2022-07-09T14:26:52;21.30;99.90
7684;DHT22;3884;48.616;12.872;2022-07-09T14:29:19;21.50;99.90
7684;DHT22;3884;48.616;12.872;2022-07-09T14:31:46;21.40;99.90
7684;DHT22;3884;48.616;12.872;2022-07-09T14:34:14;21.40;99.90
7684;DHT22;3884;48.616;12.872;2022-07-09T14:36:41;21.30;99.90
7684;DHT22;3884;48.616;12.872;2022-07-09T14:39:08;21.30;99.90
7684;DHT22;3884;48.616;12.872;2022-07-09T14:41:35;21.20;99.90
7684;DHT22;3884;48.616;12.872;2022-07-09T14:44:02;21.20;99.90
7684;DHT22;3884;48.616;12.872;2022-07-09T14:46:29;21.10;99.90
7684;DHT22;3884;48.616;12.872;2022-07-09T14:48:56;21.20;99.90
7684;DHT22;3884;48.616;12.872;2022-07-09T14:51:24;21.10;99.90
7684;DHT22;3884;48.616;12.872;2022-07-09T14:53:51;21.10;99.90
7684;DHT22;3884;48.616;12.872;2022-07-09T14:56:18;21.30;99.90
7684;DHT22;3884;48.616;12.872;2022-07-09T14:58:45;21.50;99.90
7684;DHT22;3884;48.616;12.872;2022-07-09T15:01:13;21.70;99.90
7684;DHT22;3884;48.616;12.872;2022-07-09T15:03:40;21.70;99.90
7684;DHT22;3884;48.616;12.872;2022-07-09T15:06:07;21.80;99.90
7684;DHT22;3884;48.616;12.872;2022-07-09T15:08:35;21.70;99.90
7684;DHT22;3884;48.616;12.872;2022-07-09T15:11:02;21.70;99.90
7684;DHT22;3884;48.616;12.872;2022-07-09T15:13:29;21.70;99.90
7684;DHT22;3884;48.616;12.872;2022-07-09T15:15:56;21.80;99.90
7684;DHT22;3884;48.616;12.872;2022-07-09T15:18:23;21.60;99.90
7684;DHT22;3884;48.616;12.872;2022-07-09T15:20:50;21.70;99.90
7684;DHT22;3884;48.616;12.872;2022-07-09T15:23:17;21.60;99.90
7684;DHT22;3884;48.616;12.872;2022-07-09T15:25:45;21.60;99.90
7684;DHT22;3884;48.616;12.872;2022-07-09T15:28:12;21.60;99.90
7684;DHT22;3884;48.616;12.872;2022-07-09T15:30:39;21.60;99.90
7684;DHT22;3884;48.616;12.872;2022-07-09T15:33:06;21.40;99.90
7684;DHT22;3884;48.616;12.872;2022-07-09T15:35:34;21.40;99.90
7684;DHT22;3884;48.616;12.872;2022-07-09T15:38:01;21.40;99.90
7684;DHT22;3884;48.616;12.872;2022-07-09T15:40:28;21.30;99.90
7684;DHT22;3884;48.616;12.872;2022-07-09T15:42:56;21.40;99.90
7684;DHT22;3884;48.616;12.872;2022-07-09T15:45:23;21.50;99.90
7684;DHT22;3884;48.616;12.872;2022-07-09T15:47:53;21.80;99.90
7684;DHT22;3884;48.616;12.872;2022-07-09T15:50:20;22.00;99.90
7684;DHT22;3884;48.616;12.872;2022-07-09T15:52:47;22.30;99.90